sensor_id;sensor_type;location;lat;lon;timestamp;pressure;altitude;pressure_sealevel;temperature;humidity
23261;BME280;11799;47.740;-3.390;2023-12-14T00:00:41;101807.06;;;8.17;100.00
23261;BME280;11799;47.740;-3.390;2023-12-14T00:03:07;101812.25;;;8.18;100.00
23261;BME280;11799;47.740;-3.390;2023-12-14T00:05:32;101814.66;;;8.23;100.00
23261;BME280;11799;47.740;-3.390;2023-12-14T00:07:58;101816.59;;;8.19;100.00
23261;BME280;11799;47.740;-3.390;2023-12-14T00:10:23;101822.53;;;8.23;100.00
23261;BME280;11799;47.740;-3.390;2023-12-14T00:12:49;101836.56;;;8.23;100.00
23261;BME280;11799;47.740;-3.390;2023-12-14T00:15:16;101826.72;;;8.27;100.00
23261;BME280;11799;47.740;-3.390;2023-12-14T00:17:41;101836.16;;;8.31;100.00
23261;BME280;11799;47.740;-3.390;2023-12-14T00:20:07;101832.75;;;8.29;100.00
23261;BME280;11799;47.740;-3.390;2023-12-14T00:22:33;101836.16;;;8.31;100.00
23261;BME280;11799;47.740;-3.390;2023-12-14T00:24:59;101833.69;;;8.28;100.00
23261;BME280;11799;47.740;-3.390;2023-12-14T00:27:24;101834.47;;;8.30;100.00
23261;BME280;11799;47.740;-3.390;2023-12-14T00:29:50;101834.53;;;8.28;100.00
23261;BME280;11799;47.740;-3.390;2023-12-14T00:32:15;101842.34;;;8.30;100.00
23261;BME280;11799;47.740;-3.390;2023-12-14T00:34:41;101846.69;;;8.31;100.00
23261;BME280;11799;47.740;-3.390;2023-12-14T00:37:06;101858.22;;;8.28;100.00
23261;BME280;11799;47.740;-3.390;2023-12-14T00:39:32;101864.41;;;8.27;100.00
23261;BME280;11799;47.740;-3.390;2023-12-14T00:41:57;101856.44;;;8.29;100.00
23261;BME280;11799;47.740;-3.390;2023-12-14T00:44:23;101856.28;;;8.32;100.00
23261;BME280;11799;47.740;-3.390;2023-12-14T00:46:48;101859.06;;;8.29;100.00
23261;BME280;11799;47.740;-3.390;2023-12-14T00:49:14;101866.97;;;8.29;100.00
23261;BME280;11799;47.740;-3.390;2023-12-14T00:51:39;101869.69;;;8.27;100.00
23261;BME280;11799;47.740;-3.390;2023-12-14T00:54:05;101859.16;;;8.27;100.00
23261;BME280;11799;47.740;-3.390;2023-12-14T00:56:31;101868.75;;;8.28;100.00
23261;BME280;11799;47.740;-3.390;2023-12-14T00:58:56;101876.78;;;8.25;100.00
23261;BME280;11799;47.740;-3.390;2023-12-14T01:01:22;101878.66;;;8.23;100.00
23261;BME280;11799;47.740;-3.390;2023-12-14T01:03:47;101884.00;;;8.22;100.00
23261;BME280;11799;47.740;-3.390;2023-12-14T01:06:13;101887.63;;;8.19;100.00
23261;BME280;11799;47.740;-3.390;2023-12-14T01:08:38;101886.72;;;8.20;100.00
23261;BME280;11799;47.740;-3.390;2023-12-14T01:11:04;101891.44;;;8.14;100.00
23261;BME280;11799;47.740;-3.390;2023-12-14T01:13:29;101891.28;;;8.17;100.00
23261;BME280;11799;47.740;-3.390;2023-12-14T01:15:55;101906.22;;;8.16;100.00
23261;BME280;11799;47.740;-3.390;2023-12-14T01:18:21;101903.34;;;8.21;100.00
23261;BME280;11799;47.740;-3.390;2023-12-14T01:20:46;101913.63;;;8.25;100.00
23261;BME280;11799;47.740;-3.390;2023-12-14T01:23:12;101912.88;;;8.23;100.00
23261;BME280;11799;47.740;-3.390;2023-12-14T01:25:37;101922.53;;;8.23;100.00
23261;BME280;11799;47.740;-3.390;2023-12-14T01:28:03;101925.03;;;8.26;100.00
23261;BME280;11799;47.740;-3.390;2023-12-14T01:30:29;101925.03;;;8.26;100.00
23261;BME280;11799;47.740;-3.390;2023-12-14T01:32:54;101922.47;;;8.24;100.00
23261;BME280;11799;47.740;-3.390;2023-12-14T01:35:20;101926.88;;;8.24;100.00
23261;BME280;11799;47.740;-3.390;2023-12-14T01:37:45;101931.13;;;8.26;100.00
23261;BME280;11799;47.740;-3.390;2023-12-14T01:40:11;101931.22;;;8.25;100.00
23261;BME280;11799;47.740;-3.390;2023-12-14T01:42:37;101943.53;;;8.24;100.00
23261;BME280;11799;47.740;-3.390;2023-12-14T01:45:03;101936.84;;;8.17;100.00
23261;BME280;11799;47.740;-3.390;2023-12-14T01:47:29;101949.09;;;8.18;100.00
23261;BME280;11799;47.740;-3.390;2023-12-14T01:49:54;101938.41;;;8.21;100.00
23261;BME280;11799;47.740;-3.390;2023-12-14T01:52:20;101943.81;;;8.18;100.00
23261;BME280;11799;47.740;-3.390;2023-12-14T01:54:45;101942.75;;;8.22;100.00
23261;BME280;11799;47.740;-3.390;2023-12-14T01:57:11;101951.50;;;8.23;100.00
23261;BME280;11799;47.740;-3.390;2023-12-14T01:59:36;101948.09;;;8.21;100.00
23261;BME280;11799;47.740;-3.390;2023-12-14T02:02:02;101957.84;;;8.19;100.00
23261;BME280;11799;47.740;-3.390;2023-12-14T02:04:30;101952.66;;;8.17;100.00
23261;BME280;11799;47.740;-3.390;2023-12-14T02:06:56;101958.75;;;8.18;100.00
23261;BME280;11799;47.740;-3.390;2023-12-14T02:09:21;101964.88;;;8.18;100.00
23261;BME280;11799;47.740;-3.390;2023-12-14T02:11:47;101967.34;;;8.21;100.00
23261;BME280;11799;47.740;-3.390;2023-12-14T02:14:12;101963.09;;;8.19;100.00
23261;BME280;11799;47.740;-3.390;2023-12-14T02:16:38;101963.72;;;8.24;100.00
23261;BME280;11799;47.740;-3.390;2023-12-14T02:19:05;101969.75;;;8.26;100.00
23261;BME280;11799;47.740;-3.390;2023-12-14T02:21:30;101974.94;;;8.27;100.00
23261;BME280;11799;47.740;-3.390;2023-12-14T02:23:56;101975.88;;;8.26;100.00
23261;BME280;11799;47.740;-3.390;2023-12-14T02:26:22;101981.13;;;8.26;100.00
23261;BME280;11799;47.740;-3.390;2023-12-14T02:28:47;101984.63;;;8.27;100.00
23261;BME280;11799;47.740;-3.390;2023-12-14T02:31:13;102000.13;;;8.33;100.00
23261;BME280;11799;47.740;-3.390;2023-12-14T02:33:39;102006.31;;;8.32;100.00
23261;BME280;11799;47.740;-3.390;2023-12-14T02:36:04;102006.38;;;8.31;100.00
23261;BME280;11799;47.740;-3.390;2023-12-14T02:38:30;102013.34;;;8.32;100.00
23261;BME280;11799;47.740;-3.390;2023-12-14T02:40:56;102009.81;;;8.33;100.00
23261;BME280;11799;47.740;-3.390;2023-12-14T02:43:21;102022.16;;;8.31;100.00
23261;BME280;11799;47.740;-3.390;2023-12-14T02:45:49;102024.72;;;8.32;100.00
23261;BME280;11799;47.740;-3.390;2023-12-14T02:48:14;102027.16;;;8.37;100.00
23261;BME280;11799;47.740;-3.390;2023-12-14T02:50:40;102035.22;;;8.34;100.00
23261;BME280;11799;47.740;-3.390;2023-12-14T02:53:05;102031.56;;;8.36;100.00
23261;BME280;11799;47.740;-3.390;2023-12-14T02:55:31;102050.84;;;8.37;100.00
23261;BME280;11799;47.740;-3.390;2023-12-14T02:57:56;102049.34;;;8.31;100.00
23261;BME280;11799;47.740;-3.390;2023-12-14T03:00:22;102045.75;;;8.34;100.00
23261;BME280;11799;47.740;-3.390;2023-12-14T03:02:47;102048.16;;;8.38;100.00
23261;BME280;11799;47.740;-3.390;2023-12-14T03:05:13;102045.59;;;8.37;100.00
23261;BME280;11799;47.740;-3.390;2023-12-14T03:07:39;102043.03;;;8.35;100.00
23261;BME280;11799;47.740;-3.390;2023-12-14T03:10:05;102046.66;;;8.33;100.00
23261;BME280;11799;47.740;-3.390;2023-12-14T03:12:30;102053.97;;;8.26;100.00
23261;BME280;11799;47.740;-3.390;2023-12-14T03:14:56;102054.91;;;8.25;100.00
23261;BME280;11799;47.740;-3.390;2023-12-14T03:17:21;102059.22;;;8.26;100.00
23261;BME280;11799;47.740;-3.390;2023-12-14T03:19:47;102057.69;;;8.22;100.00
23261;BME280;11799;47.740;-3.390;2023-12-14T03:22:13;102053.50;;;8.18;100.00
23261;BME280;11799;47.740;-3.390;2023-12-14T03:24:38;102059.03;;;8.12;100.00
23261;BME280;11799;47.740;-3.390;2023-12-14T03:27:04;102054.03;;;8.07;100.00
23261;BME280;11799;47.740;-3.390;2023-12-14T03:29:30;102045.22;;;8.08;100.00
23261;BME280;11799;47.740;-3.390;2023-12-14T03:31:56;102048.91;;;8.04;100.00
23261;BME280;11799;47.740;-3.390;2023-12-14T03:34:22;102056.03;;;8.02;100.00
23261;BME280;11799;47.740;-3.390;2023-12-14T03:36:48;102050.19;;;7.95;100.00
23261;BME280;11799;47.740;-3.390;2023-12-14T03:39:13;102049.50;;;7.92;100.00
23261;BME280;11799;47.740;-3.390;2023-12-14T03:41:39;102046.16;;;7.88;100.00
23261;BME280;11799;47.740;-3.390;2023-12-14T03:44:05;102037.56;;;7.85;100.00
23261;BME280;11799;47.740;-3.390;2023-12-14T03:46:30;102043.94;;;7.79;100.00
23261;BME280;11799;47.740;-3.390;2023-12-14T03:48:56;102037.19;;;7.74;100.00
23261;BME280;11799;47.740;-3.390;2023-12-14T03:51:22;102032.84;;;7.73;100.00
23261;BME280;11799;47.740;-3.390;2023-12-14T03:53:48;102039.91;;;7.72;100.00
23261;BME280;11799;47.740;-3.390;2023-12-14T03:56:13;102042.66;;;7.69;100.00
23261;BME280;11799;47.740;-3.390;2023-12-14T03:58:39;102041.81;;;7.69;100.00
23261;BME280;11799;47.740;-3.390;2023-12-14T04:01:04;102046.22;;;7.68;100.00
23261;BME280;11799;47.740;-3.390;2023-12-14T04:03:30;102043.66;;;7.67;100.00
23261;BME280;11799;47.740;-3.390;2023-12-14T04:05:55;102055.94;;;7.66;100.00
23261;BME280;11799;47.740;-3.390;2023-12-14T04:08:21;102063.97;;;7.63;100.00
23261;BME280;11799;47.740;-3.390;2023-12-14T04:10:46;102067.47;;;7.63;100.00
23261;BME280;11799;47.740;-3.390;2023-12-14T04:13:12;102063.13;;;7.62;100.00
23261;BME280;11799;47.740;-3.390;2023-12-14T04:15:37;102067.47;;;7.63;100.00
23261;BME280;11799;47.740;-3.390;2023-12-14T04:18:04;102080.81;;;7.59;100.00
23261;BME280;11799;47.740;-3.390;2023-12-14T04:20:32;102087.00;;;7.58;100.00
23261;BME280;11799;47.740;-3.390;2023-12-14T04:22:57;102096.53;;;7.60;100.00
23261;BME280;11799;47.740;-3.390;2023-12-14T04:25:22;102103.69;;;7.57;100.00
23261;BME280;11799;47.740;-3.390;2023-12-14T04:27:48;102101.13;;;7.55;100.00
23261;BME280;11799;47.740;-3.390;2023-12-14T04:30:13;102105.59;;;7.53;100.00
23261;BME280;11799;47.740;-3.390;2023-12-14T04:32:39;102107.44;;;7.51;100.00
23261;BME280;11799;47.740;-3.390;2023-12-14T04:35:05;102117.03;;;7.52;100.00
23261;BME280;11799;47.740;-3.390;2023-12-14T04:37:31;102127.56;;;7.52;100.00
23261;BME280;11799;47.740;-3.390;2023-12-14T04:39:59;102131.03;;;7.53;100.00
23261;BME280;11799;47.740;-3.390;2023-12-14T04:42:26;102132.41;;;7.61;100.00
23261;BME280;11799;47.740;-3.390;2023-12-14T04:44:51;102138.66;;;7.59;100.00
23261;BME280;11799;47.740;-3.390;2023-12-14T04:47:17;102138.50;;;7.62;100.00
23261;BME280;11799;47.740;-3.390;2023-12-14T04:49:42;102134.25;;;7.59;100.00
23261;BME280;11799;47.740;-3.390;2023-12-14T04:52:08;102132.66;;;7.55;100.00
23261;BME280;11799;47.740;-3.390;2023-12-14T04:54:34;102137.00;;;7.56;100.00
23261;BME280;11799;47.740;-3.390;2023-12-14T04:57:03;102137.94;;;7.55;100.00
23261;BME280;11799;47.740;-3.390;2023-12-14T04:59:29;102136.03;;;7.59;100.00
23261;BME280;11799;47.740;-3.390;2023-12-14T05:01:54;102143.97;;;7.57;100.00
23261;BME280;11799;47.740;-3.390;2023-12-14T05:04:20;102144.91;;;7.56;100.00
23261;BME280;11799;47.740;-3.390;2023-12-14T05:06:45;102156.41;;;7.54;100.00
23261;BME280;11799;47.740;-3.390;2023-12-14T05:09:11;102167.75;;;7.54;100.00
23261;BME280;11799;47.740;-3.390;2023-12-14T05:11:36;102157.06;;;7.59;100.00
23261;BME280;11799;47.740;-3.390;2023-12-14T05:14:02;102161.53;;;7.57;100.00
23261;BME280;11799;47.740;-3.390;2023-12-14T05:16:28;102167.75;;;7.54;100.00
23261;BME280;11799;47.740;-3.390;2023-12-14T05:18:54;102165.13;;;7.54;100.00
23261;BME280;11799;47.740;-3.390;2023-12-14T05:21:19;102173.09;;;7.53;100.00
23261;BME280;11799;47.740;-3.390;2023-12-14T05:23:45;102175.72;;;7.53;100.00
23261;BME280;11799;47.740;-3.390;2023-12-14T05:26:10;102179.19;;;7.53;100.00
23261;BME280;11799;47.740;-3.390;2023-12-14T05:28:36;102191.44;;;7.54;100.00
23261;BME280;11799;47.740;-3.390;2023-12-14T05:31:01;102192.28;;;7.55;100.00
23261;BME280;11799;47.740;-3.390;2023-12-14T05:33:28;102191.22;;;7.59;100.00
23261;BME280;11799;47.740;-3.390;2023-12-14T05:35:54;102203.53;;;7.58;100.00
23261;BME280;11799;47.740;-3.390;2023-12-14T05:38:19;102197.34;;;7.59;100.00
23261;BME280;11799;47.740;-3.390;2023-12-14T05:40:45;102190.19;;;7.63;100.00
23261;BME280;11799;47.740;-3.390;2023-12-14T05:43:11;102199.78;;;7.64;100.00
23261;BME280;11799;47.740;-3.390;2023-12-14T05:45:36;102199.84;;;7.62;100.00
23261;BME280;11799;47.740;-3.390;2023-12-14T05:48:02;102197.78;;;7.69;100.00
23261;BME280;11799;47.740;-3.390;2023-12-14T05:50:30;102196.88;;;7.70;100.00
23261;BME280;11799;47.740;-3.390;2023-12-14T05:52:56;102198.66;;;7.70;100.00
23261;BME280;11799;47.740;-3.390;2023-12-14T05:55:22;102212.00;;;7.65;100.00
23261;BME280;11799;47.740;-3.390;2023-12-14T05:57:48;102214.28;;;7.73;100.00
23261;BME280;11799;47.740;-3.390;2023-12-14T06:00:14;102217.78;;;7.73;100.00
23261;BME280;11799;47.740;-3.390;2023-12-14T06:02:40;102228.22;;;7.75;100.00
23261;BME280;11799;47.740;-3.390;2023-12-14T06:05:06;102227.25;;;7.77;100.00
23261;BME280;11799;47.740;-3.390;2023-12-14T06:07:32;102227.13;;;7.80;100.00
23261;BME280;11799;47.740;-3.390;2023-12-14T06:09:58;102228.94;;;7.78;100.00
23261;BME280;11799;47.740;-3.390;2023-12-14T06:12:23;102221.00;;;7.80;100.00
23261;BME280;11799;47.740;-3.390;2023-12-14T06:14:49;102219.22;;;7.80;100.00
23261;BME280;11799;47.740;-3.390;2023-12-14T06:17:15;102225.34;;;7.81;100.00
23261;BME280;11799;47.740;-3.390;2023-12-14T06:19:41;102219.94;;;7.84;100.00
23261;BME280;11799;47.740;-3.390;2023-12-14T06:22:07;102225.19;;;7.84;100.00
23261;BME280;11799;47.740;-3.390;2023-12-14T06:24:33;102226.91;;;7.85;100.00
23261;BME280;11799;47.740;-3.390;2023-12-14T06:26:58;102219.88;;;7.85;100.00
23261;BME280;11799;47.740;-3.390;2023-12-14T06:29:24;102219.09;;;7.83;100.00
23261;BME280;11799;47.740;-3.390;2023-12-14T06:31:49;102221.72;;;7.83;100.00
23261;BME280;11799;47.740;-3.390;2023-12-14T06:34:16;102207.84;;;7.80;100.00
23261;BME280;11799;47.740;-3.390;2023-12-14T06:36:45;102220.94;;;7.81;100.00
23261;BME280;11799;47.740;-3.390;2023-12-14T06:39:11;102217.31;;;7.84;100.00
23261;BME280;11799;47.740;-3.390;2023-12-14T06:41:37;102224.34;;;7.83;100.00
23261;BME280;11799;47.740;-3.390;2023-12-14T06:44:03;102235.72;;;7.84;100.00
23261;BME280;11799;47.740;-3.390;2023-12-14T06:46:29;102234.72;;;7.86;100.00
23261;BME280;11799;47.740;-3.390;2023-12-14T06:48:54;102237.28;;;7.88;100.00
23261;BME280;11799;47.740;-3.390;2023-12-14T06:51:21;102235.47;;;7.90;100.00
23261;BME280;11799;47.740;-3.390;2023-12-14T06:53:47;102239.72;;;7.92;100.00
23261;BME280;11799;47.740;-3.390;2023-12-14T06:56:13;102238.75;;;7.95;100.00
23261;BME280;11799;47.740;-3.390;2023-12-14T06:58:43;102243.06;;;7.96;100.00
23261;BME280;11799;47.740;-3.390;2023-12-14T07:01:16;102244.91;;;7.94;100.00
23261;BME280;11799;47.740;-3.390;2023-12-14T07:03:44;102256.38;;;7.93;100.00
23261;BME280;11799;47.740;-3.390;2023-12-14T07:06:17;102268.47;;;7.97;100.00
23261;BME280;11799;47.740;-3.390;2023-12-14T07:08:43;102272.75;;;8.00;100.00
23261;BME280;11799;47.740;-3.390;2023-12-14T07:11:10;102278.06;;;7.98;100.00
23261;BME280;11799;47.740;-3.390;2023-12-14T07:13:35;102275.56;;;7.95;100.00
23261;BME280;11799;47.740;-3.390;2023-12-14T07:16:10;102280.69;;;7.98;100.00
23261;BME280;11799;47.740;-3.390;2023-12-14T07:18:41;102280.69;;;7.98;100.00
23261;BME280;11799;47.740;-3.390;2023-12-14T07:21:07;102282.53;;;7.96;100.00
23261;BME280;11799;47.740;-3.390;2023-12-14T07:23:34;102283.47;;;7.95;100.00
23261;BME280;11799;47.740;-3.390;2023-12-14T07:26:00;102283.41;;;7.97;100.00
23261;BME280;11799;47.740;-3.390;2023-12-14T07:28:26;102287.59;;;8.01;100.00
23261;BME280;11799;47.740;-3.390;2023-12-14T07:30:51;102286.75;;;8.00;100.00
23261;BME280;11799;47.740;-3.390;2023-12-14T07:33:17;102276.22;;;8.00;100.00
23261;BME280;11799;47.740;-3.390;2023-12-14T07:35:42;102277.06;;;8.01;100.00
23261;BME280;11799;47.740;-3.390;2023-12-14T07:38:10;102264.84;;;8.00;100.00
23261;BME280;11799;47.740;-3.390;2023-12-14T07:40:35;102271.81;;;8.01;100.00
23261;BME280;11799;47.740;-3.390;2023-12-14T07:43:01;102280.63;;;8.00;100.00
23261;BME280;11799;47.740;-3.390;2023-12-14T07:45:27;102286.69;;;8.02;100.00
23261;BME280;11799;47.740;-3.390;2023-12-14T07:47:53;102302.47;;;8.02;100.00
23261;BME280;11799;47.740;-3.390;2023-12-14T07:50:19;102298.19;;;7.99;100.00
23261;BME280;11799;47.740;-3.390;2023-12-14T07:52:45;102305.09;;;8.02;100.00
23261;BME280;11799;47.740;-3.390;2023-12-14T07:55:10;102313.78;;;8.04;100.00
23261;BME280;11799;47.740;-3.390;2023-12-14T07:57:38;102314.56;;;8.06;100.00
23261;BME280;11799;47.740;-3.390;2023-12-14T08:00:05;102319.81;;;8.06;100.00
23261;BME280;11799;47.740;-3.390;2023-12-14T08:02:31;102321.53;;;8.07;100.00
23261;BME280;11799;47.740;-3.390;2023-12-14T08:04:56;102320.63;;;8.08;100.00
23261;BME280;11799;47.740;-3.390;2023-12-14T08:07:22;102314.56;;;8.06;100.00
23261;BME280;11799;47.740;-3.390;2023-12-14T08:09:48;102319.66;;;8.09;100.00
23261;BME280;11799;47.740;-3.390;2023-12-14T08:12:13;102341.50;;;8.11;100.00
23261;BME280;11799;47.740;-3.390;2023-12-14T08:14:38;102338.00;;;8.10;100.00
23261;BME280;11799;47.740;-3.390;2023-12-14T08:17:09;102335.31;;;8.12;100.00
23261;BME280;11799;47.740;-3.390;2023-12-14T08:19:35;102332.63;;;8.13;100.00
23261;BME280;11799;47.740;-3.390;2023-12-14T08:22:00;102336.09;;;8.14;100.00
23261;BME280;11799;47.740;-3.390;2023-12-14T08:24:25;102346.44;;;8.18;100.00
23261;BME280;11799;47.740;-3.390;2023-12-14T08:26:51;102344.72;;;8.17;100.00
23261;BME280;11799;47.740;-3.390;2023-12-14T08:29:17;102343.66;;;8.21;100.00
23261;BME280;11799;47.740;-3.390;2023-12-14T08:31:42;102344.38;;;8.25;100.00
23261;BME280;11799;47.740;-3.390;2023-12-14T08:34:08;102344.31;;;8.26;100.00
23261;BME280;11799;47.740;-3.390;2023-12-14T08:36:33;102345.25;;;8.25;100.00
23261;BME280;11799;47.740;-3.390;2023-12-14T08:38:59;102348.53;;;8.31;100.00
23261;BME280;11799;47.740;-3.390;2023-12-14T08:41:24;102347.63;;;8.32;100.00
23261;BME280;11799;47.740;-3.390;2023-12-14T08:43:50;102350.16;;;8.35;100.00
23261;BME280;11799;47.740;-3.390;2023-12-14T08:46:16;102355.41;;;8.35;100.00
23261;BME280;11799;47.740;-3.390;2023-12-14T08:48:41;102366.59;;;8.40;100.00
23261;BME280;11799;47.740;-3.390;2023-12-14T08:51:07;102367.38;;;8.42;100.00
23261;BME280;11799;47.740;-3.390;2023-12-14T08:53:32;102369.03;;;8.44;100.00
23261;BME280;11799;47.740;-3.390;2023-12-14T08:55:58;102370.72;;;8.45;100.00
23261;BME280;11799;47.740;-3.390;2023-12-14T08:58:23;102375.00;;;8.48;100.00
23261;BME280;11799;47.740;-3.390;2023-12-14T09:00:49;102372.31;;;8.49;100.00
23261;BME280;11799;47.740;-3.390;2023-12-14T09:03:20;102377.44;;;8.52;100.00
23261;BME280;11799;47.740;-3.390;2023-12-14T09:05:46;102379.16;;;8.53;100.00
23261;BME280;11799;47.740;-3.390;2023-12-14T09:08:12;102375.59;;;8.54;100.00
23261;BME280;11799;47.740;-3.390;2023-12-14T09:10:40;102379.88;;;8.57;100.00
23261;BME280;11799;47.740;-3.390;2023-12-14T09:13:05;102376.25;;;8.59;100.00
23261;BME280;11799;47.740;-3.390;2023-12-14T09:15:32;102372.63;;;8.62;100.00
23261;BME280;11799;47.740;-3.390;2023-12-14T09:17:57;102379.59;;;8.63;100.00
23261;BME280;11799;47.740;-3.390;2023-12-14T09:20:23;102395.25;;;8.66;100.00
23261;BME280;11799;47.740;-3.390;2023-12-14T09:22:48;102389.03;;;8.67;100.00
23261;BME280;11799;47.740;-3.390;2023-12-14T09:25:14;102387.19;;;8.69;100.00
23261;BME280;11799;47.740;-3.390;2023-12-14T09:27:41;102384.50;;;8.71;100.00
23261;BME280;11799;47.740;-3.390;2023-12-14T09:30:07;102376.53;;;8.72;100.00
23261;BME280;11799;47.740;-3.390;2023-12-14T09:32:33;102374.59;;;8.76;100.00
23261;BME280;11799;47.740;-3.390;2023-12-14T09:34:59;102370.97;;;8.78;100.00
23261;BME280;11799;47.740;-3.390;2023-12-14T09:37:25;102384.06;;;8.80;100.00
23261;BME280;11799;47.740;-3.390;2023-12-14T09:39:50;102383.09;;;8.82;100.00
23261;BME280;11799;47.740;-3.390;2023-12-14T09:42:18;102390.84;;;8.85;100.00
23261;BME280;11799;47.740;-3.390;2023-12-14T09:44:48;102397.75;;;8.88;100.00
23261;BME280;11799;47.740;-3.390;2023-12-14T09:47:14;102402.03;;;8.90;100.00
23261;BME280;11799;47.740;-3.390;2023-12-14T09:49:42;102406.38;;;8.91;100.00
23261;BME280;11799;47.740;-3.390;2023-12-14T09:52:10;102414.22;;;8.93;100.00
23261;BME280;11799;47.740;-3.390;2023-12-14T09:54:35;102411.44;;;8.96;100.00
23261;BME280;11799;47.740;-3.390;2023-12-14T09:57:01;102422.75;;;8.98;100.00
23261;BME280;11799;47.740;-3.390;2023-12-14T09:59:26;102423.53;;;9.00;100.00
23261;BME280;11799;47.740;-3.390;2023-12-14T10:01:52;102422.63;;;9.01;100.00
23261;BME280;11799;47.740;-3.390;2023-12-14T10:04:19;102419.91;;;9.03;100.00
23261;BME280;11799;47.740;-3.390;2023-12-14T10:06:47;102430.38;;;9.04;100.00
23261;BME280;11799;47.740;-3.390;2023-12-14T10:09:13;102422.47;;;9.04;100.00
23261;BME280;11799;47.740;-3.390;2023-12-14T10:11:41;102423.19;;;9.08;100.00
23261;BME280;11799;47.740;-3.390;2023-12-14T10:14:23;102416.06;;;9.10;100.00
23261;BME280;11799;47.740;-3.390;2023-12-14T10:16:50;102421.28;;;9.11;100.00
23261;BME280;11799;47.740;-3.390;2023-12-14T10:19:19;102431.69;;;9.14;100.00
23261;BME280;11799;47.740;-3.390;2023-12-14T10:21:49;102436.94;;;9.14;100.00
23261;BME280;11799;47.740;-3.390;2023-12-14T10:24:16;102442.22;;;9.14;100.00
23261;BME280;11799;47.740;-3.390;2023-12-14T10:26:41;102435.16;;;9.15;100.00
23261;BME280;11799;47.740;-3.390;2023-12-14T10:29:09;102440.38;;;9.16;100.00
23261;BME280;11799;47.740;-3.390;2023-12-14T10:31:36;102431.47;;;9.19;100.00
23261;BME280;11799;47.740;-3.390;2023-12-14T10:34:03;102426.28;;;9.17;100.00
23261;BME280;11799;47.740;-3.390;2023-12-14T10:36:30;102429.47;;;9.24;100.00
23261;BME280;11799;47.740;-3.390;2023-12-14T10:38:57;102431.94;;;9.27;100.00
23261;BME280;11799;47.740;-3.390;2023-12-14T10:41:23;102436.22;;;9.30;100.00
23261;BME280;11799;47.740;-3.390;2023-12-14T10:43:51;102424.59;;;9.34;100.00
23261;BME280;11799;47.740;-3.390;2023-12-14T10:46:19;102435.00;;;9.37;100.00
23261;BME280;11799;47.740;-3.390;2023-12-14T10:48:47;102440.22;;;9.38;100.00
23261;BME280;11799;47.740;-3.390;2023-12-14T10:51:14;102442.69;;;9.41;100.00
23261;BME280;11799;47.740;-3.390;2023-12-14T10:53:40;102441.63;;;9.45;100.00
23261;BME280;11799;47.740;-3.390;2023-12-14T10:56:10;102451.25;;;9.46;100.00
23261;BME280;11799;47.740;-3.390;2023-12-14T10:59:06;102460.72;;;9.50;100.00
23261;BME280;11799;47.740;-3.390;2023-12-14T11:01:32;102451.88;;;9.51;100.00
23261;BME280;11799;47.740;-3.390;2023-12-14T11:04:00;102465.72;;;9.56;100.00
23261;BME280;11799;47.740;-3.390;2023-12-14T11:06:30;102455.94;;;9.58;100.00
23261;BME280;11799;47.740;-3.390;2023-12-14T11:09:01;102455.03;;;9.59;100.00
23261;BME280;11799;47.740;-3.390;2023-12-14T11:11:55;102464.41;;;9.65;100.00
23261;BME280;11799;47.740;-3.390;2023-12-14T11:14:26;102455.44;;;9.69;100.00
23261;BME280;11799;47.740;-3.390;2023-12-14T11:16:56;102454.34;;;9.73;100.00
23261;BME280;11799;47.740;-3.390;2023-12-14T11:19:28;102447.16;;;9.77;100.00
23261;BME280;11799;47.740;-3.390;2023-12-14T11:24:23;102438.59;;;9.89;100.00
23261;BME280;11799;47.740;-3.390;2023-12-14T11:26:51;102432.31;;;9.91;100.00
23261;BME280;11799;47.740;-3.390;2023-12-14T11:29:19;102432.09;;;9.96;100.00
23261;BME280;11799;47.740;-3.390;2023-12-14T11:31:46;102421.41;;;9.99;100.00
23261;BME280;11799;47.740;-3.390;2023-12-14T11:34:11;102430.88;;;10.03;100.00
23261;BME280;11799;47.740;-3.390;2023-12-14T11:36:37;102429.00;;;10.05;100.00
23261;BME280;11799;47.740;-3.390;2023-12-14T11:39:10;102428.94;;;10.07;100.00
23261;BME280;11799;47.740;-3.390;2023-12-14T11:41:36;102422.50;;;10.12;100.00
23261;BME280;11799;47.740;-3.390;2023-12-14T11:44:04;102422.41;;;10.14;100.00
23261;BME280;11799;47.740;-3.390;2023-12-14T11:46:30;102421.41;;;10.16;100.00
23261;BME280;11799;47.740;-3.390;2023-12-14T11:48:57;102431.88;;;10.18;100.00
23261;BME280;11799;47.740;-3.390;2023-12-14T11:51:23;102426.50;;;10.21;100.00
23261;BME280;11799;47.740;-3.390;2023-12-14T11:53:51;102421.91;;;10.24;100.00
23261;BME280;11799;47.740;-3.390;2023-12-14T11:56:17;102424.41;;;10.28;100.00
23261;BME280;11799;47.740;-3.390;2023-12-14T11:58:44;102411.97;;;10.30;100.00
23261;BME280;11799;47.740;-3.390;2023-12-14T12:01:17;102411.97;;;10.30;100.00
23261;BME280;11799;47.740;-3.390;2023-12-14T12:03:45;102422.13;;;10.37;100.00
23261;BME280;11799;47.740;-3.390;2023-12-14T12:06:25;102421.94;;;10.40;100.00
23261;BME280;11799;47.740;-3.390;2023-12-14T12:08:53;102417.78;;;10.36;100.00
23261;BME280;11799;47.740;-3.390;2023-12-14T12:11:20;102430.84;;;10.39;100.00
23261;BME280;11799;47.740;-3.390;2023-12-14T12:13:54;102431.78;;;10.38;100.00
23261;BME280;11799;47.740;-3.390;2023-12-14T12:16:21;102430.66;;;10.42;100.00
23261;BME280;11799;47.740;-3.390;2023-12-14T12:18:47;102424.50;;;10.42;100.00
23261;BME280;11799;47.740;-3.390;2023-12-14T12:21:13;102417.28;;;10.45;100.00
23261;BME280;11799;47.740;-3.390;2023-12-14T12:23:39;102418.91;;;10.48;100.00
23261;BME280;11799;47.740;-3.390;2023-12-14T12:26:04;102420.69;;;10.47;100.00
23261;BME280;11799;47.740;-3.390;2023-12-14T12:28:31;102419.75;;;10.48;100.00
23261;BME280;11799;47.740;-3.390;2023-12-14T12:30:57;102406.41;;;10.51;100.00
23261;BME280;11799;47.740;-3.390;2023-12-14T12:33:23;102402.13;;;10.49;100.00
23261;BME280;11799;47.740;-3.390;2023-12-14T12:35:48;102400.09;;;10.54;100.00